Terminal Aerodrome Forecast
Issued by NWS Kansas City/Pleasant Hill, MO

Home | Current Version | Previous Version | Text Only | Print | Product List | Glossary On
Versions: 1 2 3 4 5 6 7 8 9 10 11 12 13 14 15 16 17 18
000
FTUS43 KEAX 132300
TAFMCI
TAF
KMCI 132324Z 1400/1424 34018G28KT P6SM OVC012
      TEMPO 1400/1402 OVC008
     FM141200 34018G26KT 4SM -SN BR OVC015
     FM141600 34018G26KT P6SM BKN035=

USA.gov is the U.S. government's official web portal to all federal, state and local government web resources and services.